Terminal Aerodrome Forecast
Issued by NWS

Home | Current Version | Previous Version | Text Only | Print | Product List | Glossary On
Versions: 1 2 3 4 5 6 7 8 9 10 11 12 13 14 15 16
000
FTUS44 KTSA 061740
TAFXNA
TAF
KXNA 061740Z 0618/0718 20010KT P6SM BKN022 OVC035
     FM062100 19015KT P6SM SCT035 BKN100
     FM070800 19005KT P6SM OVC100 PROB30 0708/0712 5SM -SHRA BKN050
     FM071300 22007KT 4SM -SHRA BR OVC045=

USA.gov is the U.S. government's official web portal to all federal, state and local government web resources and services.